sensor_id;sensor_type;location;lat;lon;timestamp;P1;P2;P0
20157;PMS5003;10239;56.820;24.416;2023-03-01T00:01:06;0.00;0.00;0.00
20157;PMS5003;10239;56.820;24.416;2023-03-01T04:02:05;8.00;7.00;3.20
20157;PMS5003;10239;56.820;24.416;2023-03-01T04:12:36;8.60;8.60;4.00
20157;PMS5003;10239;56.820;24.416;2023-03-01T04:15:21;12.20;5.60;3.00
20157;PMS5003;10239;56.820;24.416;2023-03-01T04:17:56;4.80;4.80;1.00
20157;PMS5003;10239;56.820;24.416;2023-03-01T04:20:28;11.20;9.00;4.00
20157;PMS5003;10239;56.820;24.416;2023-03-01T04:23:09;9.00;5.60;3.20
20157;PMS5003;10239;56.820;24.416;2023-03-01T04:25:51;13.40;9.20;4.00
20157;PMS5003;10239;56.820;24.416;2023-03-01T04:31:07;9.20;5.80;2.60
20157;PMS5003;10239;56.820;24.416;2023-03-01T05:02:03;9.80;5.20;3.00
20157;PMS5003;10239;56.820;24.416;2023-03-01T05:19:21;10.00;6.00;3.00
20157;PMS5003;10239;56.820;24.416;2023-03-01T05:21:50;3.80;2.20;0.40
20157;PMS5003;10239;56.820;24.416;2023-03-01T05:24:34;11.20;6.00;3.00
20157;PMS5003;10239;56.820;24.416;2023-03-01T05:27:02;7.00;5.60;3.00
20157;PMS5003;10239;56.820;24.416;2023-03-01T05:29:34;9.60;4.00;1.00
20157;PMS5003;10239;56.820;24.416;2023-03-01T05:32:04;4.80;4.80;1.00
20157;PMS5003;10239;56.820;24.416;2023-03-01T05:34:33;6.00;3.20;1.80
20157;PMS5003;10239;56.820;24.416;2023-03-01T05:37:02;6.80;3.00;1.00
20157;PMS5003;10239;56.820;24.416;2023-03-01T05:39:30;5.80;4.00;1.00
20157;PMS5003;10239;56.820;24.416;2023-03-01T05:41:59;17.00;5.60;1.00
20157;PMS5003;10239;56.820;24.416;2023-03-01T05:44:28;3.20;3.20;0.40
20157;PMS5003;10239;56.820;24.416;2023-03-01T05:46:56;4.20;3.80;1.00
20157;PMS5003;10239;56.820;24.416;2023-03-01T05:49:24;5.40;5.40;1.00
20157;PMS5003;10239;56.820;24.416;2023-03-01T05:51:52;6.80;4.00;1.00
20157;PMS5003;10239;56.820;24.416;2023-03-01T05:54:20;2.00;2.00;0.20
20157;PMS5003;10239;56.820;24.416;2023-03-01T05:56:49;6.40;4.40;1.00
20157;PMS5003;10239;56.820;24.416;2023-03-01T05:59:16;10.40;4.20;2.00
20157;PMS5003;10239;56.820;24.416;2023-03-01T06:01:44;7.40;5.00;1.00
20157;PMS5003;10239;56.820;24.416;2023-03-01T06:04:12;5.80;1.00;0.20
20157;PMS5003;10239;56.820;24.416;2023-03-01T06:06:39;4.00;3.00;0.00
20157;PMS5003;10239;56.820;24.416;2023-03-01T06:09:14;4.40;2.60;0.00
20157;PMS5003;10239;56.820;24.416;2023-03-01T06:11:46;3.60;1.60;0.80
20157;PMS5003;10239;56.820;24.416;2023-03-01T06:14:58;8.20;6.80;3.00
20157;PMS5003;10239;56.820;24.416;2023-03-01T06:17:49;6.00;3.60;1.00
20157;PMS5003;10239;56.820;24.416;2023-03-01T06:20:36;9.40;5.00;3.00
20157;PMS5003;10239;56.820;24.416;2023-03-01T06:23:11;8.80;4.80;2.20
20157;PMS5003;10239;56.820;24.416;2023-03-01T06:25:44;14.60;11.00;4.00
20157;PMS5003;10239;56.820;24.416;2023-03-01T06:28:22;4.40;2.00;1.00
20157;PMS5003;10239;56.820;24.416;2023-03-01T06:30:59;6.60;6.60;2.20
20157;PMS5003;10239;56.820;24.416;2023-03-01T06:33:45;6.60;3.80;1.80
20157;PMS5003;10239;56.820;24.416;2023-03-01T06:36:46;7.00;4.00;1.60
20157;PMS5003;10239;56.820;24.416;2023-03-01T06:39:23;10.80;7.20;1.60
20157;PMS5003;10239;56.820;24.416;2023-03-01T06:42:00;5.00;5.00;1.00
20157;PMS5003;10239;56.820;24.416;2023-03-01T06:44:31;2.00;2.00;1.00
20157;PMS5003;10239;56.820;24.416;2023-03-01T06:47:05;5.20;3.40;1.40
20157;PMS5003;10239;56.820;24.416;2023-03-01T06:49:35;2.00;2.00;1.00
20157;PMS5003;10239;56.820;24.416;2023-03-01T06:52:20;5.60;4.40;1.00
20157;PMS5003;10239;56.820;24.416;2023-03-01T06:54:52;2.60;2.00;1.00
20157;PMS5003;10239;56.820;24.416;2023-03-01T07:05:06;5.00;3.50;0.00
20157;PMS5003;10239;56.820;24.416;2023-03-01T07:22:31;1.67;0.33;0.00
20157;PMS5003;10239;56.820;24.416;2023-03-01T07:25:04;1.00;1.00;0.00
20157;PMS5003;10239;56.820;24.416;2023-03-01T07:30:45;1.20;0.80;0.00
20157;PMS5003;10239;56.820;24.416;2023-03-01T07:33:35;4.60;1.00;0.00
20157;PMS5003;10239;56.820;24.416;2023-03-01T07:36:05;2.00;0.80;0.00
20157;PMS5003;10239;56.820;24.416;2023-03-01T07:38:58;0.20;0.00;0.00
20157;PMS5003;10239;56.820;24.416;2023-03-01T07:41:32;0.80;0.80;0.00
20157;PMS5003;10239;56.820;24.416;2023-03-01T07:44:07;2.00;1.00;0.00
20157;PMS5003;10239;56.820;24.416;2023-03-01T07:46:38;1.40;1.40;0.00
20157;PMS5003;10239;56.820;24.416;2023-03-01T07:49:06;1.00;1.00;0.20
20157;PMS5003;10239;56.820;24.416;2023-03-01T07:51:43;2.20;0.80;0.00
20157;PMS5003;10239;56.820;24.416;2023-03-01T07:54:15;1.20;1.20;0.00
20157;PMS5003;10239;56.820;24.416;2023-03-01T07:57:04;4.60;1.00;0.00
20157;PMS5003;10239;56.820;24.416;2023-03-01T07:59:39;4.40;2.80;1.00
20157;PMS5003;10239;56.820;24.416;2023-03-01T08:02:17;0.40;0.40;0.00
20157;PMS5003;10239;56.820;24.416;2023-03-01T08:04:45;0.20;0.20;0.00
20157;PMS5003;10239;56.820;24.416;2023-03-01T08:07:18;0.00;0.00;0.00
20157;PMS5003;10239;56.820;24.416;2023-03-01T08:09:48;0.00;0.00;0.00
20157;PMS5003;10239;56.820;24.416;2023-03-01T08:12:16;3.20;1.00;0.40
20157;PMS5003;10239;56.820;24.416;2023-03-01T08:14:50;1.40;1.40;0.00
20157;PMS5003;10239;56.820;24.416;2023-03-01T08:17:28;5.80;1.20;0.00
20157;PMS5003;10239;56.820;24.416;2023-03-01T08:20:02;0.60;0.60;0.00
20157;PMS5003;10239;56.820;24.416;2023-03-01T08:22:43;0.00;0.00;0.00
20157;PMS5003;10239;56.820;24.416;2023-03-01T08:26:11;0.00;0.00;0.00
20157;PMS5003;10239;56.820;24.416;2023-03-01T08:29:16;0.80;0.80;0.00
20157;PMS5003;10239;56.820;24.416;2023-03-01T08:35:39;3.00;1.20;0.00
20157;PMS5003;10239;56.820;24.416;2023-03-01T08:38:54;0.00;0.00;0.00
20157;PMS5003;10239;56.820;24.416;2023-03-01T08:41:46;2.25;1.00;0.00
20157;PMS5003;10239;56.820;24.416;2023-03-01T08:44:55;1.00;1.00;0.00
20157;PMS5003;10239;56.820;24.416;2023-03-01T08:47:39;0.75;0.75;0.00
20157;PMS5003;10239;56.820;24.416;2023-03-01T08:50:16;2.75;1.25;0.00
20157;PMS5003;10239;56.820;24.416;2023-03-01T08:52:48;3.50;1.75;0.00
20157;PMS5003;10239;56.820;24.416;2023-03-01T08:55:21;0.00;0.00;0.00
20157;PMS5003;10239;56.820;24.416;2023-03-01T08:58:06;1.00;1.00;0.00
20157;PMS5003;10239;56.820;24.416;2023-03-01T09:00:47;0.50;0.50;0.00
20157;PMS5003;10239;56.820;24.416;2023-03-01T09:03:37;0.00;0.00;0.00
20157;PMS5003;10239;56.820;24.416;2023-03-01T09:06:33;0.75;0.75;0.00
20157;PMS5003;10239;56.820;24.416;2023-03-01T09:09:24;0.00;0.00;0.00
20157;PMS5003;10239;56.820;24.416;2023-03-01T09:11:59;0.00;0.00;0.00
20157;PMS5003;10239;56.820;24.416;2023-03-01T09:15:10;0.00;0.00;0.00
20157;PMS5003;10239;56.820;24.416;2023-03-01T09:17:42;2.00;0.50;0.00
20157;PMS5003;10239;56.820;24.416;2023-03-01T09:20:23;0.00;0.00;0.00
20157;PMS5003;10239;56.820;24.416;2023-03-01T09:22:59;0.75;0.75;0.25
20157;PMS5003;10239;56.820;24.416;2023-03-01T09:25:27;1.00;1.00;0.00
20157;PMS5003;10239;56.820;24.416;2023-03-01T09:27:55;0.00;0.00;0.00
20157;PMS5003;10239;56.820;24.416;2023-03-01T09:31:07;0.00;0.00;0.00
20157;PMS5003;10239;56.820;24.416;2023-03-01T09:34:18;0.00;0.00;0.00
20157;PMS5003;10239;56.820;24.416;2023-03-01T09:36:50;0.00;0.00;0.00
20157;PMS5003;10239;56.820;24.416;2023-03-01T09:39:20;2.00;1.00;0.00
20157;PMS5003;10239;56.820;24.416;2023-03-01T09:42:01;0.00;0.00;0.00
20157;PMS5003;10239;56.820;24.416;2023-03-01T09:45:34;1.00;0.00;0.00
20157;PMS5003;10239;56.820;24.416;2023-03-01T09:49:28;0.75;0.75;0.00
20157;PMS5003;10239;56.820;24.416;2023-03-01T09:52:12;1.00;1.00;0.00
20157;PMS5003;10239;56.820;24.416;2023-03-01T09:55:05;0.25;0.25;0.00
20157;PMS5003;10239;56.820;24.416;2023-03-01T09:57:47;2.00;1.50;0.00
20157;PMS5003;10239;56.820;24.416;2023-03-01T10:00:45;0.50;0.50;0.00
20157;PMS5003;10239;56.820;24.416;2023-03-01T10:03:42;0.50;0.50;0.00
20157;PMS5003;10239;56.820;24.416;2023-03-01T10:06:20;0.25;0.25;0.00
20157;PMS5003;10239;56.820;24.416;2023-03-01T10:09:10;3.50;0.75;0.00
20157;PMS5003;10239;56.820;24.416;2023-03-01T10:11:47;1.50;0.00;0.00
20157;PMS5003;10239;56.820;24.416;2023-03-01T10:14:35;0.50;0.50;0.00
20157;PMS5003;10239;56.820;24.416;2023-03-01T10:18:00;0.00;0.00;0.00
20157;PMS5003;10239;56.820;24.416;2023-03-01T10:21:17;0.00;0.00;0.00
20157;PMS5003;10239;56.820;24.416;2023-03-01T10:23:47;0.00;0.00;0.00
20157;PMS5003;10239;56.820;24.416;2023-03-01T10:29:04;0.00;0.00;0.00
20157;PMS5003;10239;56.820;24.416;2023-03-01T10:31:41;0.00;0.00;0.00
20157;PMS5003;10239;56.820;24.416;2023-03-01T10:34:20;0.00;0.00;0.00
20157;PMS5003;10239;56.820;24.416;2023-03-01T10:39:55;0.50;0.50;0.50
20157;PMS5003;10239;56.820;24.416;2023-03-01T10:43:04;0.00;0.00;0.00
20157;PMS5003;10239;56.820;24.416;2023-03-01T10:46:33;0.00;0.00;0.00
20157;PMS5003;10239;56.820;24.416;2023-03-01T10:49:17;0.00;0.00;0.00
20157;PMS5003;10239;56.820;24.416;2023-03-01T10:51:52;0.00;0.00;0.00
20157;PMS5003;10239;56.820;24.416;2023-03-01T10:54:28;0.00;0.00;0.00
20157;PMS5003;10239;56.820;24.416;2023-03-01T10:56:58;0.00;0.00;0.00
20157;PMS5003;10239;56.820;24.416;2023-03-01T10:59:29;0.00;0.00;0.00
20157;PMS5003;10239;56.820;24.416;2023-03-01T11:04:58;2.00;1.00;0.00
20157;PMS5003;10239;56.820;24.416;2023-03-01T11:07:28;2.40;2.40;0.00
20157;PMS5003;10239;56.820;24.416;2023-03-01T11:10:24;1.80;1.80;1.00
20157;PMS5003;10239;56.820;24.416;2023-03-01T11:13:20;2.00;2.00;0.20
20157;PMS5003;10239;56.820;24.416;2023-03-01T11:16:06;3.20;1.00;0.60
20157;PMS5003;10239;56.820;24.416;2023-03-01T11:18:38;1.60;1.20;0.00
20157;PMS5003;10239;56.820;24.416;2023-03-01T11:21:15;4.00;4.00;2.00
20157;PMS5003;10239;56.820;24.416;2023-03-01T11:23:46;9.00;5.00;1.40
20157;PMS5003;10239;56.820;24.416;2023-03-01T11:26:14;2.40;2.40;0.60
20157;PMS5003;10239;56.820;24.416;2023-03-01T11:28:44;6.80;3.20;1.40
20157;PMS5003;10239;56.820;24.416;2023-03-01T11:31:19;6.80;3.40;1.00
20157;PMS5003;10239;56.820;24.416;2023-03-01T11:36:24;7.40;7.40;3.00
20157;PMS5003;10239;56.820;24.416;2023-03-01T11:39:02;8.40;6.00;2.20
20157;PMS5003;10239;56.820;24.416;2023-03-01T11:41:41;7.80;3.00;2.00
20157;PMS5003;10239;56.820;24.416;2023-03-01T11:44:14;5.80;5.80;1.80
20157;PMS5003;10239;56.820;24.416;2023-03-01T11:55:46;3.80;2.40;1.00
20157;PMS5003;10239;56.820;24.416;2023-03-01T12:07:05;1.00;1.00;0.00
20157;PMS5003;10239;56.820;24.416;2023-03-01T12:15:20;0.00;0.00;0.00
20157;PMS5003;10239;56.820;24.416;2023-03-01T12:33:11;1.60;0.00;0.00
20157;PMS5003;10239;56.820;24.416;2023-03-01T12:41:46;1.60;0.20;0.00
20157;PMS5003;10239;56.820;24.416;2023-03-01T12:55:55;0.00;0.00;0.00
20157;PMS5003;10239;56.820;24.416;2023-03-01T12:58:33;0.20;0.20;0.00
20157;PMS5003;10239;56.820;24.416;2023-03-01T13:01:39;0.00;0.00;0.00
20157;PMS5003;10239;56.820;24.416;2023-03-01T13:04:17;0.80;0.40;0.00
20157;PMS5003;10239;56.820;24.416;2023-03-01T13:07:11;0.00;0.00;0.00
20157;PMS5003;10239;56.820;24.416;2023-03-01T13:10:11;1.00;0.00;0.00
20157;PMS5003;10239;56.820;24.416;2023-03-01T13:20:27;0.00;0.00;0.00
20157;PMS5003;10239;56.820;24.416;2023-03-01T13:23:01;0.00;0.00;0.00
20157;PMS5003;10239;56.820;24.416;2023-03-01T13:31:03;0.60;0.60;0.00
20157;PMS5003;10239;56.820;24.416;2023-03-01T13:33:37;0.80;0.80;0.00
20157;PMS5003;10239;56.820;24.416;2023-03-01T13:39:00;0.00;0.00;0.00
20157;PMS5003;10239;56.820;24.416;2023-03-01T13:49:40;1.00;1.00;0.00
20157;PMS5003;10239;56.820;24.416;2023-03-01T13:52:39;2.80;0.80;0.00
20157;PMS5003;10239;56.820;24.416;2023-03-01T13:57:41;1.80;0.00;0.00
20157;PMS5003;10239;56.820;24.416;2023-03-01T14:08:44;0.60;0.60;0.00
20157;PMS5003;10239;56.820;24.416;2023-03-01T14:19:37;1.00;1.00;0.00
20157;PMS5003;10239;56.820;24.416;2023-03-01T14:22:10;0.60;0.60;0.00
20157;PMS5003;10239;56.820;24.416;2023-03-01T14:24:56;0.60;0.60;0.00
20157;PMS5003;10239;56.820;24.416;2023-03-01T14:27:33;0.20;0.20;0.00
20157;PMS5003;10239;56.820;24.416;2023-03-01T14:30:18;0.00;0.00;0.00
20157;PMS5003;10239;56.820;24.416;2023-03-01T14:32:57;2.40;0.80;0.00
20157;PMS5003;10239;56.820;24.416;2023-03-01T14:35:36;1.00;1.00;0.00
20157;PMS5003;10239;56.820;24.416;2023-03-01T14:38:39;2.20;1.00;0.00
20157;PMS5003;10239;56.820;24.416;2023-03-01T14:41:21;5.20;0.00;0.00
20157;PMS5003;10239;56.820;24.416;2023-03-01T14:44:16;0.80;0.80;0.00
20157;PMS5003;10239;56.820;24.416;2023-03-01T14:47:06;3.80;0.60;0.00
20157;PMS5003;10239;56.820;24.416;2023-03-01T14:50:27;0.00;0.00;0.00
20157;PMS5003;10239;56.820;24.416;2023-03-01T14:53:41;0.40;0.40;0.00
20157;PMS5003;10239;56.820;24.416;2023-03-01T14:56:17;3.40;1.00;0.00
20157;PMS5003;10239;56.820;24.416;2023-03-01T14:59:09;1.40;0.00;0.00
20157;PMS5003;10239;56.820;24.416;2023-03-01T15:01:50;1.00;0.40;0.00
20157;PMS5003;10239;56.820;24.416;2023-03-01T15:04:38;2.00;1.00;1.00
20157;PMS5003;10239;56.820;24.416;2023-03-01T15:07:18;1.00;1.00;0.00
20157;PMS5003;10239;56.820;24.416;2023-03-01T15:09:52;1.80;0.40;0.00
20157;PMS5003;10239;56.820;24.416;2023-03-01T15:15:59;1.00;1.00;0.00
20157;PMS5003;10239;56.820;24.416;2023-03-01T15:22:28;0.67;0.67;0.00
20157;PMS5003;10239;56.820;24.416;2023-03-01T15:25:02;1.00;1.00;0.00
20157;PMS5003;10239;56.820;24.416;2023-03-01T15:27:31;1.60;0.00;0.00
20157;PMS5003;10239;56.820;24.416;2023-03-01T15:30:17;0.20;0.20;0.00
20157;PMS5003;10239;56.820;24.416;2023-03-01T15:35:58;0.80;0.80;0.20
20157;PMS5003;10239;56.820;24.416;2023-03-01T15:41:19;1.80;1.80;0.00
20157;PMS5003;10239;56.820;24.416;2023-03-01T15:44:23;2.00;1.60;0.60
20157;PMS5003;10239;56.820;24.416;2023-03-01T15:47:30;2.40;1.00;0.00
20157;PMS5003;10239;56.820;24.416;2023-03-01T15:50:01;1.80;0.80;0.00
20157;PMS5003;10239;56.820;24.416;2023-03-01T15:52:45;4.00;2.00;0.60
20157;PMS5003;10239;56.820;24.416;2023-03-01T15:55:28;2.80;1.00;0.00
20157;PMS5003;10239;56.820;24.416;2023-03-01T16:12:17;2.20;0.20;0.00
20157;PMS5003;10239;56.820;24.416;2023-03-01T16:27:56;2.00;0.80;0.00
20157;PMS5003;10239;56.820;24.416;2023-03-01T16:31:21;4.40;1.00;0.20
20157;PMS5003;10239;56.820;24.416;2023-03-01T16:34:25;0.00;0.00;0.00
20157;PMS5003;10239;56.820;24.416;2023-03-01T16:40:59;1.00;1.00;0.60
20157;PMS5003;10239;56.820;24.416;2023-03-01T17:07:11;4.60;4.40;1.00
20157;PMS5003;10239;56.820;24.416;2023-03-01T17:10:30;2.80;1.00;0.00
20157;PMS5003;10239;56.820;24.416;2023-03-01T17:13:31;3.00;3.00;0.00
20157;PMS5003;10239;56.820;24.416;2023-03-01T17:17:07;3.80;1.00;0.20
20157;PMS5003;10239;56.820;24.416;2023-03-01T17:27:43;1.00;1.00;0.20
20157;PMS5003;10239;56.820;24.416;2023-03-01T17:30:56;1.00;1.00;0.00
20157;PMS5003;10239;56.820;24.416;2023-03-01T17:37:16;3.00;0.60;0.00
20157;PMS5003;10239;56.820;24.416;2023-03-01T18:14:57;6.60;5.20;2.60
20157;PMS5003;10239;56.820;24.416;2023-03-01T18:27:42;3.60;3.60;1.00
20157;PMS5003;10239;56.820;24.416;2023-03-01T18:33:54;5.60;3.40;1.00
20157;PMS5003;10239;56.820;24.416;2023-03-01T18:54:26;6.00;6.00;3.00
20157;PMS5003;10239;56.820;24.416;2023-03-01T18:57:17;3.40;3.40;1.00
20157;PMS5003;10239;56.820;24.416;2023-03-01T19:08:51;9.00;4.00;1.00
20157;PMS5003;10239;56.820;24.416;2023-03-01T19:11:41;5.20;3.00;3.00
20157;PMS5003;10239;56.820;24.416;2023-03-01T19:14:16;6.20;3.80;1.40
20157;PMS5003;10239;56.820;24.416;2023-03-01T19:16:45;7.40;6.20;3.00
20157;PMS5003;10239;56.820;24.416;2023-03-01T19:22:10;10.40;6.00;1.00
20157;PMS5003;10239;56.820;24.416;2023-03-01T19:25:11;12.20;9.60;3.40
20157;PMS5003;10239;56.820;24.416;2023-03-01T19:27:56;15.40;10.00;5.60
20157;PMS5003;10239;56.820;24.416;2023-03-01T19:30:58;7.00;4.80;1.00
20157;PMS5003;10239;56.820;24.416;2023-03-01T19:34:20;6.20;5.60;2.20
20157;PMS5003;10239;56.820;24.416;2023-03-01T19:37:05;13.00;9.00;3.00
20157;PMS5003;10239;56.820;24.416;2023-03-01T19:39:34;4.80;4.80;1.00
20157;PMS5003;10239;56.820;24.416;2023-03-01T19:42:03;6.40;4.00;2.60
20157;PMS5003;10239;56.820;24.416;2023-03-01T19:44:32;6.00;4.00;1.40
20157;PMS5003;10239;56.820;24.416;2023-03-01T19:47:00;4.00;4.00;1.00
20157;PMS5003;10239;56.820;24.416;2023-03-01T19:50:27;5.60;5.60;3.00
20157;PMS5003;10239;56.820;24.416;2023-03-01T20:01:00;12.25;3.75;1.00
20157;PMS5003;10239;56.820;24.416;2023-03-01T20:07:08;3.00;3.00;1.00
20157;PMS5003;10239;56.820;24.416;2023-03-01T20:16:57;4.40;4.40;1.00
20157;PMS5003;10239;56.820;24.416;2023-03-01T20:29:40;4.00;4.00;1.00
20157;PMS5003;10239;56.820;24.416;2023-03-01T20:43:51;2.60;2.20;0.80
20157;PMS5003;10239;56.820;24.416;2023-03-01T21:59:50;2.20;2.20;0.00
20157;PMS5003;10239;56.820;24.416;2023-03-01T22:13:19;2.60;0.40;0.00
20157;PMS5003;10239;56.820;24.416;2023-03-01T22:36:24;1.00;1.00;0.00
20157;PMS5003;10239;56.820;24.416;2023-03-01T22:39:39;4.20;3.00;1.00
20157;PMS5003;10239;56.820;24.416;2023-03-01T22:59:30;5.00;1.00;0.00
20157;PMS5003;10239;56.820;24.416;2023-03-01T23:18:31;3.00;3.00;0.00
